This is the latest recevied weather packets stored in our database for station/object KAWM. If no packets are shown the sender has not sent any weather packets the latest 10 day(s).
| Time | Temp. | Humidity | Pressure | Rain* | Wind** | Luminosity | Snow |
|---|---|---|---|---|---|---|---|
| 1777610601 | 12.78° C | 71% | 1015.9 hPa | - | - | - | - |
| 1777610007 | 12.78° C | 71% | 1015.9 hPa | - | - | - | - |
| 1777609406 | 12.78° C | 71% | 1015.9 hPa | - | - | - | - |
| 1777608806 | 12.78° C | 71% | 1015.9 hPa | - | - | - | - |
| 1777608212 | 12.78° C | 71% | 1015.9 hPa | - | - | - | - |
| 1777607607 | 13.89° C | 67% | 1015.9 hPa | - | - | - | - |
| 1777607003 | 13.89° C | 67% | 1015.9 hPa | - | - | - | - |
| 1777606404 | 13.89° C | 67% | 1015.9 hPa | - | - | - | - |
| 1777605807 | 13.89° C | 67% | 1015.9 hPa | - | - | - | - |
| 1777605203 | 13.89° C | 67% | 1015.9 hPa | - | - | - | - |
| 1777604613 | 13.89° C | 67% | 1015.9 hPa | - | - | - | - |
| 1777604007 | 13.89° C | 67% | 1015.6 hPa | - | - | - | - |
| 1777603405 | 13.89° C | 67% | 1015.6 hPa | - | - | - | - |
| 1777602810 | 13.89° C | 67% | 1015.6 hPa | - | - | - | - |
| 1777602206 | 13.89° C | 67% | 1015.6 hPa | - | - | - | - |
| 1777601607 | 13.89° C | 67% | 1015.6 hPa | - | - | - | - |
| 1777601005 | 13.89° C | 67% | 1015.6 hPa | - | - | - | - |
| 1777600405 | 15° C | 58% | 1015.2 hPa | - | - | - | - |
| 1777587205 | 16.67° C | 45% | 1014.6 hPa | - | - | - | - |
| 1777583607 | 17.78° C | 42% | 1014.9 hPa | - | - | - | - |
| 1777583009 | 17.78° C | 42% | 1014.9 hPa | - | - | - | - |
| 1777582411 | 18.89° C | 42% | 1015.6 hPa | - | - | - | - |
| 1777581807 | 18.89° C | 42% | 1015.6 hPa | - | - | - | - |
| 1777580609 | 18.89° C | 42% | 1015.6 hPa | - | - | - | - |
| 1777576408 | 18.89° C | 45% | 1015.9 hPa | - | - | - | - |
* Rain since midnight (hover to see other rain measurements)
** Current wind speed in m/s (hover to see current wind gust speed)